Time;durP1;ratioP1;P1;durP2;ratioP2;P2;SDS_P1;SDS_P2;PMS_P1;PMS_P2;Temp;Humidity;BMP_temperature;BMP_pressure;BME280_temperature;BME280_humidity;BME280_pressure;Samples;Min_cycle;Max_cycle;Signal;HPM_P1;HPM_P2
2022/11/12 00:01:24;;;;;;;2.38;1.75;;;14.10;65.10;;;;;;5025485;28;20282;-71
2022/11/12 00:03:50;;;;;;;2.08;1.88;;;14.10;65.10;;;;;;5041086;28;20018;-72
2022/11/12 00:06:16;;;;;;;2.17;1.98;;;14.20;65.20;;;;;;5025658;28;20018;-72
2022/11/12 00:08:42;;;;;;;2.58;1.83;;;14.20;65.10;;;;;;5025609;28;20018;-71
2022/11/12 00:11:08;;;;;;;2.03;1.90;;;14.20;65.10;;;;;;5025611;28;20017;-72
2022/11/12 00:13:34;;;;;;;2.50;2.30;;;14.10;65.00;;;;;;5040884;28;20097;-72
2022/11/12 00:16:00;;;;;;;2.28;2.00;;;14.10;65.10;;;;;;5024402;28;20025;-72
2022/11/12 00:18:25;;;;;;;2.40;2.20;;;14.10;65.00;;;;;;5040799;28;20021;-72
2022/11/12 00:20:51;;;;;;;2.13;1.88;;;14.20;65.10;;;;;;5025336;28;20045;-72
2022/11/12 00:23:17;;;;;;;2.67;2.08;;;14.10;65.00;;;;;;5025369;28;20014;-72
2022/11/12 00:25:43;;;;;;;2.03;1.80;;;14.20;65.10;;;;;;5025267;28;20022;-71
2022/11/12 00:28:10;;;;;;;1.80;1.60;;;14.10;65.10;;;;;;5025062;28;20018;-71
2022/11/12 00:30:39;;;;;;;2.65;2.45;;;14.10;65.10;;;;;;5025266;28;20029;-71
2022/11/12 00:33:06;;;;;;;2.35;2.00;;;14.20;65.10;;;;;;5040554;28;20022;-71
2022/11/12 00:35:32;;;;;;;1.90;1.73;;;14.20;65.00;;;;;;5025118;28;20306;-72
2022/11/12 00:37:59;;;;;;;2.28;1.98;;;14.10;65.10;;;;;;5040448;28;20199;-71
2022/11/12 00:40:26;;;;;;;3.88;2.15;;;14.10;65.10;;;;;;5024991;28;20010;-72
2022/11/12 00:42:52;;;;;;;1.70;1.60;;;14.10;65.00;;;;;;5040320;28;20013;-72
2022/11/12 00:45:19;;;;;;;2.30;2.10;;;14.10;65.00;;;;;;5040272;28;20021;-72
2022/11/12 00:47:45;;;;;;;1.80;1.58;;;14.10;65.10;;;;;;5024946;28;20057;-72
2022/11/12 00:50:11;;;;;;;2.47;2.28;;;14.10;65.00;;;;;;5040185;28;20021;-71
2022/11/12 00:52:36;;;;;;;2.38;2.17;;;14.20;65.10;;;;;;5024832;28;20022;-72
2022/11/12 00:55:03;;;;;;;1.92;1.67;;;14.10;65.10;;;;;;5024765;28;20209;-72
2022/11/12 00:57:29;;;;;;;1.88;1.77;;;14.10;65.00;;;;;;5024754;28;20310;-71
2022/11/12 00:59:54;;;;;;;2.67;2.08;;;14.10;65.00;;;;;;5024723;28;20026;-73
2022/11/12 01:02:21;;;;;;;2.40;2.20;;;14.20;65.10;;;;;;5039885;28;20017;-72
2022/11/12 01:04:47;;;;;;;2.10;1.90;;;14.10;65.10;;;;;;5024640;28;20022;-71
2022/11/12 01:07:14;;;;;;;2.78;1.90;;;14.10;65.10;;;;;;5024524;28;20306;-72
2022/11/12 01:09:40;;;;;;;2.25;1.90;;;14.10;65.10;;;;;;5024552;28;20057;-71
2022/11/12 01:12:06;;;;;;;2.20;2.00;;;14.10;65.10;;;;;;5024037;28;20026;-71
2022/11/12 01:14:32;;;;;;;2.33;2.03;;;14.10;65.10;;;;;;5024397;28;20355;-71
2022/11/12 01:16:58;;;;;;;2.20;1.90;;;14.10;65.10;;;;;;5024469;28;20017;-72
2022/11/12 01:19:24;;;;;;;2.45;2.25;;;14.20;65.10;;;;;;5039659;28;20026;-72
2022/11/12 01:21:50;;;;;;;2.20;2.00;;;14.10;65.00;;;;;;5024226;28;20257;-72
2022/11/12 01:24:16;;;;;;;2.17;1.88;;;14.10;65.00;;;;;;5024273;28;20129;-71
2022/11/12 01:26:41;;;;;;;2.95;2.03;;;14.10;65.10;;;;;;5024211;28;20017;-70
2022/11/12 01:29:07;;;;;;;2.60;2.22;;;14.10;65.10;;;;;;5023982;28;20042;-71
2022/11/12 01:31:36;;;;;;;2.30;1.88;;;14.10;65.10;;;;;;5039480;28;20025;-71
2022/11/12 01:34:05;;;;;;;2.03;1.83;;;14.10;65.10;;;;;;5039500;28;20022;-72
2022/11/12 01:36:35;;;;;;;2.75;2.00;;;14.10;65.10;;;;;;5039418;28;20330;-71
2022/11/12 01:39:00;;;;;;;1.63;1.52;;;14.10;65.10;;;;;;5024125;28;20022;-71
2022/11/12 01:41:29;;;;;;;2.58;2.38;;;14.10;65.20;;;;;;5023900;28;20275;-71
2022/11/12 01:44:14;;;;;;;2.13;1.90;;;14.10;65.10;;;;;;5024014;28;20013;-71
2022/11/12 01:46:59;;;;;;;1.88;1.70;;;14.10;65.10;;;;;;5039357;28;20022;-72
2022/11/12 01:49:41;;;;;;;2.22;1.85;;;14.10;65.10;;;;;;5023967;28;20405;-71
2022/11/12 01:52:26;;;;;;;2.20;1.98;;;14.10;65.10;;;;;;5023924;28;20048;-73
2022/11/12 01:54:56;;;;;;;2.13;1.92;;;14.10;65.10;;;;;;5039144;28;20347;-71
2022/11/12 01:57:30;;;;;;;2.13;1.90;;;14.10;65.10;;;;;;5023868;28;20036;-72
2022/11/12 02:00:03;;;;;;;2.25;1.95;;;14.10;65.00;;;;;;5023864;28;20056;-71
2022/11/12 02:02:29;;;;;;;2.00;1.80;;;14.10;65.00;;;;;;5023759;28;20022;-71
2022/11/12 02:04:56;;;;;;;2.28;2.08;;;14.10;65.00;;;;;;5039052;28;20018;-71
2022/11/12 02:07:23;;;;;;;2.22;1.95;;;14.10;65.00;;;;;;5023714;28;20021;-71
2022/11/12 02:09:50;;;;;;;2.88;1.90;;;14.10;65.10;;;;;;5023689;28;20014;-71
2022/11/12 02:15:01;;;;;;;2.15;1.95;;;14.10;65.10;;;;;;5023689;28;20057;-72
2022/11/12 02:17:27;;;;;;;1.80;1.67;;;14.10;65.10;;;;;;5038986;28;20049;-72
2022/11/12 02:19:53;;;;;;;1.77;1.63;;;14.10;65.10;;;;;;5038910;28;20068;-72
2022/11/12 02:22:18;;;;;;;3.05;2.22;;;14.10;65.10;;;;;;5023492;28;20084;-72
2022/11/12 02:24:44;;;;;;;2.13;1.90;;;14.00;65.10;;;;;;5026029;28;20022;-72
2022/11/12 02:27:11;;;;;;;2.10;1.90;;;14.10;65.20;;;;;;5027535;28;20109;-71
2022/11/12 02:29:45;;;;;;;2.05;1.85;;;14.10;65.20;;;;;;5027293;28;20042;-72
2022/11/12 02:32:12;;;;;;;2.03;1.83;;;14.10;65.20;;;;;;5027529;28;20018;-71
2022/11/12 02:34:39;;;;;;;2.00;1.80;;;14.10;65.30;;;;;;5042809;28;20018;-70
2022/11/12 02:37:06;;;;;;;2.03;1.83;;;14.10;65.20;;;;;;5042753;28;20278;-70
2022/11/12 02:39:32;;;;;;;3.67;2.05;;;14.10;65.20;;;;;;5027338;28;20015;-73
2022/11/12 02:41:58;;;;;;;2.60;1.90;;;14.10;65.20;;;;;;5027244;28;20024;-73
2022/11/12 02:44:24;;;;;;;2.28;2.08;;;14.10;65.30;;;;;;5027253;28;20081;-71
2022/11/12 02:46:50;;;;;;;2.25;1.92;;;14.00;65.20;;;;;;5027232;28;20125;-71
2022/11/12 02:49:16;;;;;;;2.25;2.05;;;14.00;65.20;;;;;;5042504;28;20217;-71
2022/11/12 02:51:41;;;;;;;3.03;2.20;;;14.00;65.10;;;;;;5027125;28;20029;-71
2022/11/12 02:54:07;;;;;;;2.20;1.92;;;14.00;65.20;;;;;;5027022;28;20051;-71
2022/11/12 02:56:34;;;;;;;2.55;2.35;;;14.00;65.20;;;;;;5026968;28;20029;-71
2022/11/12 02:59:00;;;;;;;2.42;2.22;;;14.00;65.20;;;;;;5027021;28;20018;-71
2022/11/12 03:01:26;;;;;;;2.20;2.00;;;14.10;65.20;;;;;;5042273;28;20392;-71
2022/11/12 03:03:51;;;;;;;2.50;2.30;;;14.10;65.10;;;;;;5026876;28;20020;-71
2022/11/12 03:06:17;;;;;;;2.08;1.88;;;14.00;65.10;;;;;;5026818;28;20021;-71
2022/11/12 03:08:43;;;;;;;2.72;2.30;;;14.00;65.30;;;;;;5026779;28;20009;-71
2022/11/12 03:11:12;;;;;;;2.35;2.15;;;14.00;65.30;;;;;;5042124;28;20064;-71
2022/11/12 03:13:38;;;;;;;;;;;14.00;65.30;;;;;;5042516;28;20264;-71
2022/11/12 03:16:05;;;;;;;2.38;1.90;;;14.00;65.30;;;;;;5026700;28;19901;-71
2022/11/12 03:18:30;;;;;;;2.30;2.10;;;14.00;65.30;;;;;;5026658;28;20028;-72
2022/11/12 03:20:56;;;;;;;2.17;1.90;;;14.00;65.20;;;;;;5026490;28;20045;-71
2022/11/12 03:23:22;;;;;;;2.80;2.50;;;14.00;65.20;;;;;;5026524;28;20025;-72
2022/11/12 03:25:48;;;;;;;2.17;1.98;;;14.00;65.20;;;;;;5041814;28;20306;-71
2022/11/12 03:28:15;;;;;;;2.40;2.20;;;14.00;65.30;;;;;;5026672;28;20065;-71
2022/11/12 03:30:42;;;;;;;2.20;2.00;;;14.00;65.30;;;;;;5026405;28;20029;-72
2022/11/12 03:33:10;;;;;;;2.50;2.03;;;14.00;65.30;;;;;;5041698;28;20018;-72
2022/11/12 03:35:37;;;;;;;2.17;1.98;;;14.00;65.30;;;;;;5040698;28;20237;-71
2022/11/12 03:38:03;;;;;;;1.95;1.85;;;14.00;65.30;;;;;;5041668;28;20261;-71
2022/11/12 03:40:30;;;;;;;1.90;1.65;;;14.00;65.20;;;;;;5026280;28;20022;-71
2022/11/12 03:42:56;;;;;;;2.38;2.17;;;14.00;65.30;;;;;;5041632;28;20022;-72
2022/11/12 03:45:25;;;;;;;1.92;1.75;;;14.00;65.30;;;;;;5026178;28;20356;-72
2022/11/12 03:47:53;;;;;;;2.25;2.03;;;14.00;65.20;;;;;;5026147;28;20088;-71
2022/11/12 03:50:21;;;;;;;2.75;2.17;;;14.00;65.20;;;;;;5026092;28;20029;-71
2022/11/12 03:52:48;;;;;;;;;;;14.00;65.20;;;;;;5026431;28;20021;-71
2022/11/12 03:55:16;;;;;;;2.00;1.80;;;14.00;65.20;;;;;;5025956;28;20189;-71
2022/11/12 03:57:42;;;;;;;2.58;2.17;;;14.00;65.10;;;;;;5025899;28;20097;-71
2022/11/12 04:00:09;;;;;;;2.70;2.17;;;14.00;65.20;;;;;;5025844;28;20025;-72
2022/11/12 04:02:35;;;;;;;2.63;2.10;;;14.00;65.10;;;;;;5025713;28;20056;-72
2022/11/12 04:10:44;;;;;;;2.00;1.80;;;13.90;65.20;;;;;;5025705;28;20045;-71
2022/11/12 04:13:28;;;;;;;2.10;1.90;;;14.00;65.30;;;;;;5040999;28;20241;-71
2022/11/12 04:21:49;;;;;;;2.95;2.25;;;13.90;65.40;;;;;;5025444;28;20025;-71
2022/11/12 04:27:04;;;;;;;2.25;2.05;;;14.00;65.40;;;;;;5025378;28;20029;-72
2022/11/12 04:32:14;;;;;;;2.00;1.80;;;14.00;65.30;;;;;;5025287;28;20470;-72
2022/11/12 04:34:40;;;;;;;1.80;1.70;;;13.90;65.30;;;;;;5025222;28;20025;-72
2022/11/12 04:37:07;;;;;;;2.13;1.92;;;13.90;65.40;;;;;;5025168;28;20027;-71
2022/11/12 04:39:33;;;;;;;2.17;1.95;;;13.90;65.40;;;;;;5040477;28;20017;-72
2022/11/12 04:44:58;;;;;;;2.25;2.05;;;14.00;65.40;;;;;;5025077;28;20037;-71
2022/11/12 04:47:38;;;;;;;1.75;1.65;;;14.00;65.30;;;;;;5024083;28;20020;-72
2022/11/12 04:50:13;;;;;;;2.20;2.00;;;14.00;65.30;;;;;;5024896;28;20025;-72
2022/11/12 04:52:39;;;;;;;2.13;1.90;;;14.00;65.30;;;;;;5040283;28;20033;-72
2022/11/12 04:55:05;;;;;;;2.00;1.80;;;13.90;65.30;;;;;;5040169;28;20026;-71
2022/11/12 04:57:31;;;;;;;2.00;1.60;;;13.90;65.40;;;;;;5024782;28;20310;-71
2022/11/12 04:59:57;;;;;;;1.75;1.60;;;13.90;65.40;;;;;;5024737;28;20026;-71
2022/11/12 05:02:23;;;;;;;2.42;2.13;;;13.90;65.30;;;;;;5024594;28;20068;-71
2022/11/12 05:04:49;;;;;;;2.35;2.15;;;13.90;65.40;;;;;;5024643;28;20100;-71
2022/11/12 05:07:15;;;;;;;2.60;1.98;;;14.00;65.30;;;;;;5039943;28;20348;-71
2022/11/12 05:09:42;;;;;;;2.40;1.98;;;14.00;65.40;;;;;;5024598;28;20236;-71
2022/11/12 05:12:08;;;;;;;2.15;1.95;;;14.00;65.30;;;;;;5024557;28;20021;-72
2022/11/12 05:14:34;;;;;;;2.00;1.80;;;13.90;65.30;;;;;;5024497;28;20343;-71
2022/11/12 05:17:00;;;;;;;1.67;1.58;;;13.90;65.40;;;;;;5024485;28;20056;-72
2022/11/12 05:19:26;;;;;;;2.00;1.80;;;13.90;65.40;;;;;;5024433;28;20026;-72
2022/11/12 05:22:04;;;;;;;2.00;1.80;;;13.90;65.40;;;;;;5039567;28;20364;-71
2022/11/12 05:24:31;;;;;;;1.83;1.60;;;13.90;65.40;;;;;;5024350;28;20018;-71
2022/11/12 05:26:57;;;;;;;2.28;2.08;;;13.90;65.30;;;;;;5039623;28;20186;-72
2022/11/12 05:29:23;;;;;;;2.08;1.88;;;13.90;65.30;;;;;;5024109;28;20049;-72
2022/11/12 05:31:48;;;;;;;2.08;1.77;;;14.00;65.30;;;;;;5024197;28;20028;-72
2022/11/12 05:34:14;;;;;;;1.98;1.77;;;13.90;65.30;;;;;;5024181;28;20048;-72
2022/11/12 05:36:40;;;;;;;1.98;1.77;;;13.90;65.30;;;;;;5024093;28;20019;-72
2022/11/12 05:39:06;;;;;;;2.38;1.98;;;13.90;65.30;;;;;;5039423;28;20041;-72
2022/11/12 05:41:32;;;;;;;3.47;2.33;;;13.90;65.30;;;;;;5039282;28;20030;-72
2022/11/12 05:43:58;;;;;;;2.25;2.05;;;13.90;65.30;;;;;;5039351;28;20014;-71
2022/11/12 05:46:23;;;;;;;2.20;1.90;;;13.90;65.40;;;;;;5024017;28;20018;-72
2022/11/12 05:48:49;;;;;;;1.65;1.55;;;13.90;65.30;;;;;;5039222;28;20021;-71
2022/11/12 05:51:15;;;;;;;1.80;1.65;;;13.90;65.30;;;;;;5023874;28;20022;-72
2022/11/12 05:53:41;;;;;;;1.98;1.83;;;13.90;65.30;;;;;;5039206;28;20235;-72
2022/11/12 05:56:09;;;;;;;2.42;1.95;;;13.90;65.30;;;;;;5023837;28;20032;-71
2022/11/12 05:58:37;;;;;;;2.50;1.90;;;13.90;65.30;;;;;;5023561;28;20022;-72
2022/11/12 06:01:03;;;;;;;2.35;2.15;;;13.90;65.90;;;;;;5023746;28;20309;-72
2022/11/12 06:03:29;;;;;;;1.98;1.88;;;13.90;65.30;;;;;;5023758;28;20018;-72
2022/11/12 06:05:55;;;;;;;1.95;1.85;;;13.90;65.20;;;;;;5023695;28;20018;-72
2022/11/12 06:08:21;;;;;;;1.95;1.75;;;13.90;65.30;;;;;;5023716;28;20080;-72
2022/11/12 06:10:49;;;;;;;2.05;1.85;;;13.90;65.30;;;;;;5023695;28;20321;-72
2022/11/12 06:13:15;;;;;;;2.10;1.75;;;13.90;65.20;;;;;;5023658;28;20325;-73
2022/11/12 06:15:41;;;;;;;2.10;1.90;;;13.90;65.30;;;;;;5038961;28;20028;-72
2022/11/12 06:18:07;;;;;;;2.20;2.00;;;13.90;65.30;;;;;;5023637;28;20022;-72
2022/11/12 06:20:34;;;;;;;1.83;1.70;;;13.90;65.30;;;;;;5038906;28;20210;-72
2022/11/12 06:23:00;;;;;;;3.00;2.35;;;13.90;65.30;;;;;;5023604;28;20022;-72
2022/11/12 06:25:26;;;;;;;2.60;2.20;;;13.90;65.30;;;;;;5038888;28;20252;-72
2022/11/12 06:27:53;;;;;;;1.70;1.60;;;13.90;65.10;;;;;;5038840;28;20029;-72
2022/11/12 06:30:19;;;;;;;1.77;1.67;;;13.90;65.20;;;;;;5023381;28;20335;-72
2022/11/12 06:32:46;;;;;;;2.10;1.90;;;13.90;65.10;;;;;;5023517;28;20025;-72
2022/11/12 06:35:12;;;;;;;1.90;1.60;;;13.90;65.20;;;;;;5038785;28;20060;-72
2022/11/12 06:37:38;;;;;;;2.30;2.10;;;13.90;65.10;;;;;;5023397;28;20081;-73
2022/11/12 06:40:06;;;;;;;2.45;2.13;;;13.90;65.10;;;;;;5023461;28;20010;-73
2022/11/12 06:42:32;;;;;;;2.42;1.92;;;13.90;65.10;;;;;;5038586;28;20046;-72
2022/11/12 06:44:58;;;;;;;2.05;1.85;;;13.90;65.20;;;;;;5023395;28;20010;-72
2022/11/12 06:47:24;;;;;;;2.53;2.00;;;13.90;65.20;;;;;;5023285;28;20276;-72
2022/11/12 06:49:50;;;;;;;2.47;2.00;;;13.90;65.10;;;;;;5023344;28;20018;-72
2022/11/12 06:52:16;;;;;;;1.70;1.60;;;14.00;65.10;;;;;;5023261;28;20238;-72
2022/11/12 06:54:41;;;;;;;2.05;1.85;;;13.90;65.00;;;;;;5023227;28;20021;-72
2022/11/12 06:57:07;;;;;;;2.08;1.83;;;13.90;65.00;;;;;;5023281;28;20191;-72
2022/11/12 06:59:34;;;;;;;1.85;1.70;;;13.90;65.00;;;;;;5038551;28;20024;-72
2022/11/12 07:01:59;;;;;;;2.33;1.88;;;13.90;65.00;;;;;;5038436;28;20029;-72
2022/11/12 07:04:25;;;;;;;1.90;1.73;;;14.00;65.00;;;;;;5023154;28;20010;-72
2022/11/12 07:06:51;;;;;;;1.98;1.77;;;13.90;64.90;;;;;;5038422;28;20025;-72
2022/11/12 07:09:17;;;;;;;2.13;1.67;;;14.00;65.10;;;;;;5023158;28;20056;-71
2022/11/12 07:11:43;;;;;;;1.67;1.58;;;14.00;65.10;;;;;;5040715;28;20032;-72
2022/11/12 07:14:09;;;;;;;2.53;2.22;;;13.90;65.00;;;;;;5042058;28;20021;-72
2022/11/12 07:16:35;;;;;;;2.40;2.17;;;14.00;65.00;;;;;;5026632;28;20021;-72
2022/11/12 07:19:01;;;;;;;2.45;2.25;;;14.00;64.90;;;;;;5026605;28;20118;-73
2022/11/12 07:21:27;;;;;;;2.20;2.00;;;14.00;65.00;;;;;;5026539;28;20026;-72
2022/11/12 07:23:53;;;;;;;2.08;1.88;;;13.90;65.10;;;;;;5026570;28;20081;-72
2022/11/12 07:26:29;;;;;;;1.52;1.42;;;13.90;65.00;;;;;;5026484;28;20021;-72
2022/11/12 07:28:55;;;;;;;1.85;1.65;;;13.90;65.00;;;;;;5041692;28;20054;-72
2022/11/12 07:31:22;;;;;;;1.98;1.77;;;14.00;65.00;;;;;;5041762;28;20018;-72
2022/11/12 07:33:48;;;;;;;2.42;2.22;;;14.00;65.00;;;;;;5026368;28;20018;-72
2022/11/12 07:36:16;;;;;;;1.98;1.77;;;13.90;64.90;;;;;;5026364;28;20021;-72
2022/11/12 07:38:43;;;;;;;2.67;2.15;;;14.00;65.00;;;;;;5041675;28;20497;-72
2022/11/12 07:41:15;;;;;;;2.90;2.15;;;14.00;65.00;;;;;;5041532;28;20030;-72
2022/11/12 07:43:43;;;;;;;2.45;2.08;;;14.00;65.00;;;;;;5026264;28;20024;-72
2022/11/12 07:46:11;;;;;;;2.47;2.28;;;14.00;65.00;;;;;;5026181;28;20018;-72
2022/11/12 07:48:38;;;;;;;2.25;1.92;;;14.00;65.00;;;;;;5026115;28;20084;-71
2022/11/12 07:51:13;;;;;;;2.20;2.00;;;14.00;65.00;;;;;;5026033;28;20306;-71
2022/11/12 07:53:40;;;;;;;2.22;2.00;;;13.90;65.00;;;;;;5026011;28;20022;-72
2022/11/12 07:56:09;;;;;;;2.20;2.00;;;13.90;65.00;;;;;;5025959;28;20022;-72
2022/11/12 07:58:35;;;;;;;2.25;2.05;;;13.90;65.00;;;;;;5025947;28;20081;-71
2022/11/12 08:01:20;;;;;;;2.30;2.10;;;13.90;65.10;;;;;;5025798;28;20318;-71
2022/11/12 08:03:46;;;;;;;2.20;1.95;;;13.90;65.10;;;;;;5025852;28;20043;-72
2022/11/12 08:06:11;;;;;;;1.92;1.73;;;13.90;65.10;;;;;;5025726;28;20313;-71
2022/11/12 08:08:37;;;;;;;2.05;1.92;;;13.90;65.00;;;;;;5041056;28;20029;-71
2022/11/12 08:11:03;;;;;;;2.00;1.90;;;14.00;65.10;;;;;;5025634;28;20090;-71
2022/11/12 08:13:29;;;;;;;2.40;2.10;;;14.00;65.10;;;;;;5024461;28;20270;-71
2022/11/12 08:15:58;;;;;;;2.10;1.90;;;13.90;65.00;;;;;;5025534;28;20017;-72
2022/11/12 08:18:25;;;;;;;2.30;1.92;;;14.00;65.10;;;;;;5025507;28;20021;-71
2022/11/12 08:20:51;;;;;;;1.73;1.63;;;14.00;64.90;;;;;;5025409;28;20018;-72
2022/11/12 08:23:17;;;;;;;2.15;1.95;;;14.00;64.90;;;;;;5025322;28;20198;-71
2022/11/12 08:25:43;;;;;;;2.28;2.08;;;14.00;64.90;;;;;;5025374;28;20029;-72
2022/11/12 08:28:09;;;;;;;2.05;1.85;;;14.00;64.80;;;;;;5025312;28;20221;-72
2022/11/12 08:30:35;;;;;;;2.22;1.92;;;14.00;64.80;;;;;;5025111;28;20050;-72
2022/11/12 08:33:04;;;;;;;2.35;1.92;;;14.00;64.80;;;;;;5025215;28;20085;-71
2022/11/12 08:35:31;;;;;;;2.30;2.10;;;14.00;64.80;;;;;;5025219;28;20029;-72
2022/11/12 08:38:02;;;;;;;2.00;1.77;;;14.10;64.80;;;;;;5025145;28;20021;-72
2022/11/12 08:40:29;;;;;;;2.10;1.90;;;14.10;64.70;;;;;;5040468;28;20060;-72
2022/11/12 08:43:04;;;;;;;1.70;1.58;;;14.10;64.70;;;;;;5024986;28;20022;-73
2022/11/12 08:45:36;;;;;;;1.70;1.60;;;14.10;64.70;;;;;;5025053;28;20010;-72
2022/11/12 08:48:04;;;;;;;2.10;1.88;;;14.10;64.70;;;;;;5024935;28;20018;-72
2022/11/12 08:50:30;;;;;;;1.88;1.77;;;14.10;64.80;;;;;;5040376;28;20308;-72
2022/11/12 08:53:01;;;;;;;2.05;1.60;;;14.00;64.70;;;;;;5024849;28;20033;-72
2022/11/12 08:55:28;;;;;;;2.22;1.63;;;14.00;64.80;;;;;;5024826;28;20029;-72
2022/11/12 08:57:54;;;;;;;2.05;1.88;;;14.00;64.80;;;;;;5040156;28;20219;-72
2022/11/12 09:00:20;;;;;;;1.80;1.65;;;14.10;64.80;;;;;;5024742;28;20018;-73
2022/11/12 09:02:46;;;;;;;2.28;2.08;;;14.00;64.80;;;;;;5039954;28;20041;-72
2022/11/12 09:05:11;;;;;;;2.17;1.77;;;14.10;64.90;;;;;;5024662;28;20014;-72
2022/11/12 09:07:37;;;;;;;1.98;1.75;;;14.10;64.80;;;;;;5024604;28;20326;-72
2022/11/12 09:10:03;;;;;;;2.20;2.00;;;14.10;64.80;;;;;;5024540;28;20068;-72
2022/11/12 09:12:29;;;;;;;1.60;1.50;;;14.10;64.70;;;;;;5024606;28;20085;-71
2022/11/12 09:14:55;;;;;;;2.08;1.73;;;14.10;65.20;;;;;;5024541;28;20029;-72
2022/11/12 09:17:21;;;;;;;2.33;2.10;;;14.20;64.40;;;;;;5024542;28;20403;-72
2022/11/12 09:19:47;;;;;;;2.17;1.83;;;14.20;64.40;;;;;;5024482;28;20033;-72
2022/11/12 09:22:13;;;;;;;2.33;1.98;;;14.20;64.40;;;;;;5024366;28;20244;-72
2022/11/12 09:24:38;;;;;;;1.60;1.50;;;14.20;64.40;;;;;;5039695;28;20096;-72
2022/11/12 09:27:04;;;;;;;2.30;2.10;;;14.10;64.90;;;;;;5024288;28;20014;-72
2022/11/12 09:29:30;;;;;;;2.17;1.98;;;14.00;65.00;;;;;;5039273;28;20376;-72
2022/11/12 09:31:58;;;;;;;2.22;2.00;;;14.10;65.00;;;;;;5039842;28;20105;-72
2022/11/12 09:34:24;;;;;;;2.15;1.73;;;14.10;65.00;;;;;;5039085;28;20063;-72
2022/11/12 09:36:50;;;;;;;2.58;2.15;;;14.10;65.00;;;;;;5024111;28;20085;-72
2022/11/12 09:39:16;;;;;;;1.80;1.70;;;14.10;64.80;;;;;;5024078;28;20310;-72
2022/11/12 09:41:42;;;;;;;2.35;2.15;;;14.20;64.70;;;;;;5023970;28;20076;-72
2022/11/12 09:44:15;;;;;;;2.10;1.90;;;14.20;64.50;;;;;;5023997;28;20028;-73
2022/11/12 09:46:47;;;;;;;1.70;1.60;;;14.30;64.40;;;;;;5039385;28;20089;-72
2022/11/12 09:49:33;;;;;;;2.03;1.75;;;14.20;64.60;;;;;;5039250;28;20052;-72
2022/11/12 09:52:03;;;;;;;2.10;1.80;;;14.20;64.70;;;;;;5023922;28;20025;-72
2022/11/12 09:54:30;;;;;;;2.00;1.70;;;14.20;64.70;;;;;;5023872;28;20025;-72
2022/11/12 09:56:56;;;;;;;1.80;1.70;;;14.20;64.70;;;;;;5023851;28;20026;-72
2022/11/12 09:59:27;;;;;;;2.08;1.80;;;14.20;64.80;;;;;;5023816;28;20359;-72
2022/11/12 10:02:18;;;;;;;2.38;1.80;;;14.20;65.40;;;;;;5023768;28;20041;-72
2022/11/12 10:05:22;;;;;;;2.45;2.25;;;14.20;64.70;;;;;;5023834;28;20033;-72
2022/11/12 10:08:10;;;;;;;2.05;1.77;;;14.20;64.80;;;;;;5023809;28;20454;-72
2022/11/12 10:10:38;;;;;;;2.80;2.30;;;14.20;64.80;;;;;;5039058;28;20213;-72
2022/11/12 10:13:29;;;;;;;2.10;1.90;;;14.10;65.00;;;;;;5023694;28;20049;-72
2022/11/12 10:19:15;;;;;;;2.25;2.05;;;14.10;64.80;;;;;;5023649;28;20047;-72
2022/11/12 10:21:55;;;;;;;1.70;1.60;;;14.10;65.10;;;;;;5023527;28;20041;-71
2022/11/12 10:24:22;;;;;;;2.08;1.77;;;14.10;65.20;;;;;;5023545;28;20046;-71
2022/11/12 10:26:51;;;;;;;1.75;1.63;;;14.10;65.30;;;;;;5023548;28;20014;-72
2022/11/12 10:29:50;;;;;;;1.65;1.55;;;14.10;65.00;;;;;;5038709;28;20265;-72
2022/11/12 10:32:15;;;;;;;2.05;1.88;;;14.10;65.10;;;;;;5023518;28;20025;-72
2022/11/12 10:34:41;;;;;;;1.90;1.70;;;14.10;65.30;;;;;;5023500;28;20045;-71
2022/11/12 10:37:37;;;;;;;1.80;1.70;;;14.10;65.30;;;;;;5023448;28;20064;-71
2022/11/12 10:40:26;;;;;;;2.10;1.90;;;14.20;65.10;;;;;;5023236;28;20314;-71
2022/11/12 10:43:17;;;;;;;2.08;1.80;;;14.10;65.10;;;;;;5038675;28;20076;-72
2022/11/12 10:45:48;;;;;;;1.90;1.80;;;14.10;65.00;;;;;;5024172;28;20037;-72
2022/11/12 10:48:32;;;;;;;2.00;1.80;;;14.10;65.10;;;;;;5027310;28;20320;-72
2022/11/12 10:50:59;;;;;;;2.00;1.50;;;14.20;65.10;;;;;;5042623;28;20045;-72
2022/11/12 10:53:38;;;;;;;2.42;1.80;;;14.20;65.00;;;;;;5027125;28;20025;-72
2022/11/12 10:56:28;;;;;;;1.73;1.52;;;14.20;64.90;;;;;;5027157;28;20020;-72
2022/11/12 10:59:10;;;;;;;1.67;1.58;;;14.30;64.80;;;;;;5027098;28;20081;-73
2022/11/12 11:01:36;;;;;;;1.75;1.60;;;14.30;64.70;;;;;;5042287;28;20060;-72
2022/11/12 11:04:02;;;;;;;2.00;1.80;;;14.40;65.30;;;;;;5026969;28;20017;-72
2022/11/12 11:06:28;;;;;;;2.00;1.80;;;14.40;64.60;;;;;;5026926;28;20044;-72
2022/11/12 11:09:19;;;;;;;2.35;1.92;;;14.40;64.60;;;;;;5026920;28;20014;-72
2022/11/12 11:11:50;;;;;;;2.30;1.70;;;14.50;64.40;;;;;;5026886;28;20028;-72
2022/11/12 11:14:22;;;;;;;1.85;1.67;;;14.50;64.50;;;;;;5042159;28;20017;-73
2022/11/12 11:17:07;;;;;;;1.80;1.70;;;14.50;64.50;;;;;;5026761;28;20076;-72
2022/11/12 11:19:42;;;;;;;1.52;1.42;;;14.40;64.50;;;;;;5026711;28;20084;-72
2022/11/12 11:22:23;;;;;;;1.95;1.85;;;14.40;64.60;;;;;;5026498;28;20021;-72
2022/11/12 11:25:15;;;;;;;1.73;1.63;;;14.40;64.60;;;;;;5026613;28;20033;-72
2022/11/12 11:28:00;;;;;;;2.40;1.98;;;14.40;64.60;;;;;;5026529;28;20301;-72
2022/11/12 11:30:26;;;;;;;2.13;1.92;;;14.50;64.80;;;;;;5026352;28;20049;-72
2022/11/12 11:33:01;;;;;;;1.90;1.80;;;14.50;64.80;;;;;;5041828;28;20025;-73
2022/11/12 11:35:48;;;;;;;2.22;1.80;;;14.50;64.70;;;;;;5026342;28;20064;-72
2022/11/12 11:38:51;;;;;;;1.77;1.50;;;14.50;64.60;;;;;;5026328;28;20018;-72
2022/11/12 11:41:29;;;;;;;2.53;2.33;;;14.60;64.60;;;;;;5026226;28;20041;-72
2022/11/12 11:44:32;;;;;;;1.98;1.88;;;14.50;64.70;;;;;;5026276;28;20029;-72
2022/11/12 11:47:22;;;;;;;1.95;1.60;;;14.50;64.80;;;;;;5026157;28;20073;-71
2022/11/12 11:50:14;;;;;;;2.10;1.88;;;14.40;64.90;;;;;;5026112;28;20377;-71
2022/11/12 11:53:05;;;;;;;2.00;1.77;;;14.40;65.10;;;;;;5026240;28;20034;-71
2022/11/12 11:55:58;;;;;;;1.88;1.75;;;14.40;65.00;;;;;;5041406;28;20037;-74
2022/11/12 11:58:41;;;;;;;1.50;1.40;;;14.40;65.10;;;;;;5041028;28;20036;-73
2022/11/12 12:01:16;;;;;;;1.70;1.60;;;14.40;65.10;;;;;;5025856;28;20041;-73
2022/11/12 12:04:13;;;;;;;1.60;1.50;;;14.40;65.10;;;;;;5025868;28;20014;-74
2022/11/12 12:07:12;;;;;;;2.00;1.80;;;14.40;65.10;;;;;;5041232;28;20033;-71
2022/11/12 12:10:03;;;;;;;1.90;1.70;;;14.40;65.20;;;;;;5041094;28;20018;-72
2022/11/12 12:13:03;;;;;;;2.17;1.88;;;14.40;65.10;;;;;;5025715;28;20024;-72
2022/11/12 12:15:44;;;;;;;2.15;1.95;;;14.40;65.20;;;;;;5025384;28;20030;-71
2022/11/12 12:18:22;;;;;;;1.90;1.80;;;14.40;65.20;;;;;;5025653;28;20033;-71
2022/11/12 12:21:14;;;;;;;1.70;1.60;;;14.40;65.10;;;;;;5025529;28;20290;-71
2022/11/12 12:23:45;;;;;;;1.92;1.77;;;14.40;65.10;;;;;;5040925;28;20021;-72
2022/11/12 12:26:23;;;;;;;1.88;1.60;;;14.40;65.10;;;;;;5025441;28;20024;-72
2022/11/12 12:29:06;;;;;;;2.33;1.98;;;14.40;65.00;;;;;;5025129;28;20087;-72
2022/11/12 12:31:39;;;;;;;1.90;1.70;;;14.50;65.00;;;;;;5024202;28;20041;-72
2022/11/12 12:34:17;;;;;;;1.70;1.60;;;14.50;64.90;;;;;;5025330;28;20021;-73
2022/11/12 12:36:44;;;;;;;1.77;1.60;;;14.50;64.90;;;;;;5040650;28;20088;-72
2022/11/12 12:39:12;;;;;;;1.77;1.55;;;14.50;65.00;;;;;;5025162;28;20305;-72
2022/11/12 12:41:54;;;;;;;1.92;1.75;;;14.50;65.10;;;;;;5025105;28;20026;-72
2022/11/12 12:44:21;;;;;;;1.83;1.65;;;14.40;65.00;;;;;;5025094;28;20025;-72
2022/11/12 12:46:56;;;;;;;1.88;1.58;;;14.50;65.10;;;;;;5025044;28;20085;-72
2022/11/12 12:49:32;;;;;;;1.98;1.65;;;14.50;65.10;;;;;;5024978;28;20018;-72
2022/11/12 12:51:58;;;;;;;1.98;1.80;;;14.50;65.10;;;;;;5023867;28;20060;-73
2022/11/12 12:54:33;;;;;;;1.58;1.48;;;14.50;65.10;;;;;;5024942;28;20017;-72
2022/11/12 12:57:00;;;;;;;2.28;1.90;;;14.50;65.00;;;;;;5024902;28;20089;-72
2022/11/12 12:59:25;;;;;;;1.67;1.52;;;14.50;65.10;;;;;;5024804;28;20018;-72
2022/11/12 13:02:00;;;;;;;1.75;1.65;;;14.50;65.10;;;;;;5040044;28;20068;-72
2022/11/12 13:04:49;;;;;;;1.38;1.27;;;14.50;64.90;;;;;;5040117;28;20018;-72
2022/11/12 13:07:15;;;;;;;1.70;1.60;;;14.60;64.70;;;;;;5024672;28;20085;-71
2022/11/12 13:09:41;;;;;;;1.60;1.50;;;14.60;64.70;;;;;;5023857;28;20064;-71
2022/11/12 13:14:34;;;;;;;2.15;1.92;;;14.60;64.50;;;;;;5024529;28;20018;-71
2022/11/12 13:17:06;;;;;;;1.55;1.35;;;14.80;64.00;;;;;;5039869;28;20018;-72
2022/11/12 13:20:09;;;;;;;1.70;1.60;;;15.00;63.70;;;;;;5024470;28;20017;-71
2022/11/12 13:22:37;;;;;;;1.75;1.58;;;14.90;63.60;;;;;;5024302;28;20026;-72
2022/11/12 13:25:09;;;;;;;1.33;1.23;;;15.00;63.40;;;;;;5039682;28;20013;-72
2022/11/12 13:27:41;;;;;;;1.63;1.52;;;15.20;63.10;;;;;;5039649;28;20022;-72
2022/11/12 13:30:27;;;;;;;1.48;1.38;;;15.30;62.60;;;;;;5024179;28;20061;-72
2022/11/12 13:32:54;;;;;;;1.70;1.60;;;15.30;62.60;;;;;;5019457;28;20026;-72